sensor_id;sensor_type;location;lat;lon;timestamp;P1;durP1;ratioP1;P2;durP2;ratioP2
7051;SDS011;3567;52.444;13.556;2022-09-12T00:00:29;13.82;;;11.50;;
7051;SDS011;3567;52.444;13.556;2022-09-12T00:02:56;11.50;;;10.10;;
7051;SDS011;3567;52.444;13.556;2022-09-12T00:05:22;12.00;;;10.80;;
7051;SDS011;3567;52.444;13.556;2022-09-12T00:07:47;12.55;;;10.25;;
7051;SDS011;3567;52.444;13.556;2022-09-12T00:10:13;11.73;;;10.52;;
7051;SDS011;3567;52.444;13.556;2022-09-12T00:12:39;12.25;;;10.80;;
7051;SDS011;3567;52.444;13.556;2022-09-12T00:15:04;11.68;;;10.30;;
7051;SDS011;3567;52.444;13.556;2022-09-12T00:17:32;13.35;;;10.25;;
7051;SDS011;3567;52.444;13.556;2022-09-12T00:19:59;10.05;;;8.13;;
7051;SDS011;3567;52.444;13.556;2022-09-12T00:22:24;13.07;;;9.98;;
7051;SDS011;3567;52.444;13.556;2022-09-12T00:24:50;10.20;;;9.18;;
7051;SDS011;3567;52.444;13.556;2022-09-12T00:27:15;11.70;;;10.02;;
7051;SDS011;3567;52.444;13.556;2022-09-12T00:29:40;9.43;;;8.43;;
7051;SDS011;3567;52.444;13.556;2022-09-12T00:32:06;11.45;;;9.38;;
7051;SDS011;3567;52.444;13.556;2022-09-12T00:34:31;10.10;;;8.95;;
7051;SDS011;3567;52.444;13.556;2022-09-12T00:36:56;10.70;;;9.60;;
7051;SDS011;3567;52.444;13.556;2022-09-12T00:39:22;12.93;;;9.82;;
7051;SDS011;3567;52.444;13.556;2022-09-12T00:41:47;9.60;;;8.70;;
7051;SDS011;3567;52.444;13.556;2022-09-12T00:47:03;11.02;;;9.35;;
7051;SDS011;3567;52.444;13.556;2022-09-12T00:49:38;11.10;;;9.10;;
7051;SDS011;3567;52.444;13.556;2022-09-12T00:52:18;11.85;;;9.63;;
7051;SDS011;3567;52.444;13.556;2022-09-12T00:54:52;11.43;;;9.25;;
7051;SDS011;3567;52.444;13.556;2022-09-12T00:57:25;11.07;;;8.40;;
7051;SDS011;3567;52.444;13.556;2022-09-12T01:00:16;10.98;;;9.23;;
7051;SDS011;3567;52.444;13.556;2022-09-12T01:02:42;11.27;;;7.82;;
7051;SDS011;3567;52.444;13.556;2022-09-12T01:05:09;10.93;;;7.80;;
7051;SDS011;3567;52.444;13.556;2022-09-12T01:07:37;9.18;;;8.23;;
7051;SDS011;3567;52.444;13.556;2022-09-12T01:10:04;12.77;;;8.80;;
7051;SDS011;3567;52.444;13.556;2022-09-12T01:12:32;12.95;;;8.43;;
7051;SDS011;3567;52.444;13.556;2022-09-12T01:14:58;8.38;;;7.57;;
7051;SDS011;3567;52.444;13.556;2022-09-12T01:17:33;8.23;;;7.40;;
7051;SDS011;3567;52.444;13.556;2022-09-12T01:25:38;9.65;;;8.75;;
7051;SDS011;3567;52.444;13.556;2022-09-12T01:28:44;11.48;;;8.82;;
7051;SDS011;3567;52.444;13.556;2022-09-12T01:31:36;8.77;;;7.45;;
7051;SDS011;3567;52.444;13.556;2022-09-12T01:34:25;7.63;;;6.50;;
7051;SDS011;3567;52.444;13.556;2022-09-12T01:37:16;7.80;;;6.85;;
7051;SDS011;3567;52.444;13.556;2022-09-12T01:40:10;5.95;;;5.53;;
7051;SDS011;3567;52.444;13.556;2022-09-12T01:47:55;8.25;;;6.88;;
7051;SDS011;3567;52.444;13.556;2022-09-12T01:50:27;8.25;;;7.18;;
7051;SDS011;3567;52.444;13.556;2022-09-12T01:53:05;9.30;;;6.80;;
7051;SDS011;3567;52.444;13.556;2022-09-12T02:00:45;7.10;;;6.50;;
7051;SDS011;3567;52.444;13.556;2022-09-12T02:03:33;6.63;;;5.90;;
7051;SDS011;3567;52.444;13.556;2022-09-12T02:06:07;9.82;;;6.82;;
7051;SDS011;3567;52.444;13.556;2022-09-12T02:08:53;7.57;;;6.85;;
7051;SDS011;3567;52.444;13.556;2022-09-12T02:11:22;7.07;;;6.43;;
7051;SDS011;3567;52.444;13.556;2022-09-12T02:13:55;7.50;;;6.80;;
7051;SDS011;3567;52.444;13.556;2022-09-12T02:16:32;6.35;;;5.85;;
7051;SDS011;3567;52.444;13.556;2022-09-12T02:19:08;13.13;;;7.75;;
7051;SDS011;3567;52.444;13.556;2022-09-12T02:21:36;12.90;;;7.10;;
7051;SDS011;3567;52.444;13.556;2022-09-12T02:24:06;6.88;;;6.28;;
7051;SDS011;3567;52.444;13.556;2022-09-12T02:26:35;7.00;;;6.40;;
7051;SDS011;3567;52.444;13.556;2022-09-12T02:29:08;9.57;;;6.82;;
7051;SDS011;3567;52.444;13.556;2022-09-12T02:31:42;7.38;;;6.72;;
7051;SDS011;3567;52.444;13.556;2022-09-12T02:39:40;6.60;;;5.80;;
7051;SDS011;3567;52.444;13.556;2022-09-12T02:42:05;7.22;;;6.63;;
7051;SDS011;3567;52.444;13.556;2022-09-12T02:44:31;7.45;;;6.68;;
7051;SDS011;3567;52.444;13.556;2022-09-12T02:47:06;7.50;;;5.78;;
7051;SDS011;3567;52.444;13.556;2022-09-12T02:49:43;6.30;;;5.80;;
7051;SDS011;3567;52.444;13.556;2022-09-12T02:52:09;11.93;;;6.07;;
7051;SDS011;3567;52.444;13.556;2022-09-12T02:54:35;6.20;;;5.65;;
7051;SDS011;3567;52.444;13.556;2022-09-12T02:57:02;8.02;;;5.45;;
7051;SDS011;3567;52.444;13.556;2022-09-12T02:59:28;6.70;;;6.05;;
7051;SDS011;3567;52.444;13.556;2022-09-12T03:02:02;7.90;;;7.20;;
7051;SDS011;3567;52.444;13.556;2022-09-12T03:07:25;13.05;;;11.65;;
7051;SDS011;3567;52.444;13.556;2022-09-12T03:16:18;8.20;;;7.38;;
7051;SDS011;3567;52.444;13.556;2022-09-12T03:18:32;8.40;;;7.50;;
7051;SDS011;3567;52.444;13.556;2022-09-12T03:24:16;8.55;;;7.55;;
7051;SDS011;3567;52.444;13.556;2022-09-12T03:29:23;8.52;;;7.15;;
7051;SDS011;3567;52.444;13.556;2022-09-12T03:31:51;12.10;;;8.93;;
7051;SDS011;3567;52.444;13.556;2022-09-12T03:34:21;8.88;;;7.97;;
7051;SDS011;3567;52.444;13.556;2022-09-12T03:36:48;11.48;;;8.48;;
7051;SDS011;3567;52.444;13.556;2022-09-12T03:39:14;10.50;;;7.88;;
7051;SDS011;3567;52.444;13.556;2022-09-12T03:41:40;7.38;;;6.78;;
7051;SDS011;3567;52.444;13.556;2022-09-12T03:44:05;9.25;;;7.32;;
7051;SDS011;3567;52.444;13.556;2022-09-12T03:46:31;8.23;;;6.85;;
7051;SDS011;3567;52.444;13.556;2022-09-12T03:48:56;9.40;;;7.22;;
7051;SDS011;3567;52.444;13.556;2022-09-12T03:51:22;10.10;;;7.70;;
7051;SDS011;3567;52.444;13.556;2022-09-12T03:53:47;7.47;;;6.80;;
7051;SDS011;3567;52.444;13.556;2022-09-12T03:56:12;8.20;;;7.35;;
7051;SDS011;3567;52.444;13.556;2022-09-12T03:58:38;6.95;;;6.22;;
7051;SDS011;3567;52.444;13.556;2022-09-12T04:01:07;11.43;;;7.75;;
7051;SDS011;3567;52.444;13.556;2022-09-12T04:03:37;8.15;;;7.43;;
7051;SDS011;3567;52.444;13.556;2022-09-12T04:06:05;7.88;;;7.07;;
7051;SDS011;3567;52.444;13.556;2022-09-12T04:08:32;7.80;;;7.10;;
7051;SDS011;3567;52.444;13.556;2022-09-12T04:11:05;8.48;;;7.47;;
7051;SDS011;3567;52.444;13.556;2022-09-12T04:13:33;7.95;;;7.15;;
7051;SDS011;3567;52.444;13.556;2022-09-12T04:15:59;13.98;;;8.68;;
7051;SDS011;3567;52.444;13.556;2022-09-12T04:18:25;7.20;;;6.50;;
7051;SDS011;3567;52.444;13.556;2022-09-12T04:20:51;8.63;;;7.28;;
7051;SDS011;3567;52.444;13.556;2022-09-12T04:23:16;8.75;;;7.72;;
7051;SDS011;3567;52.444;13.556;2022-09-12T04:25:42;11.20;;;7.65;;
7051;SDS011;3567;52.444;13.556;2022-09-12T04:28:07;11.05;;;8.32;;
7051;SDS011;3567;52.444;13.556;2022-09-12T04:30:33;9.20;;;7.55;;
7051;SDS011;3567;52.444;13.556;2022-09-12T04:32:58;10.77;;;7.55;;
7051;SDS011;3567;52.444;13.556;2022-09-12T04:35:24;10.10;;;7.28;;
7051;SDS011;3567;52.444;13.556;2022-09-12T04:37:50;8.05;;;7.00;;
7051;SDS011;3567;52.444;13.556;2022-09-12T04:40:16;7.47;;;6.63;;
7051;SDS011;3567;52.444;13.556;2022-09-12T04:42:41;7.75;;;6.95;;
7051;SDS011;3567;52.444;13.556;2022-09-12T04:45:07;7.57;;;6.88;;
7051;SDS011;3567;52.444;13.556;2022-09-12T04:47:32;8.93;;;7.30;;
7051;SDS011;3567;52.444;13.556;2022-09-12T04:49:58;9.13;;;8.20;;
7051;SDS011;3567;52.444;13.556;2022-09-12T04:52:23;8.05;;;7.22;;
7051;SDS011;3567;52.444;13.556;2022-09-12T04:54:48;8.15;;;7.35;;
7051;SDS011;3567;52.444;13.556;2022-09-12T04:57:14;11.40;;;7.22;;
7051;SDS011;3567;52.444;13.556;2022-09-12T04:59:39;11.07;;;7.60;;
7051;SDS011;3567;52.444;13.556;2022-09-12T05:02:05;8.55;;;7.03;;
7051;SDS011;3567;52.444;13.556;2022-09-12T05:04:30;7.90;;;7.20;;
7051;SDS011;3567;52.444;13.556;2022-09-12T05:06:56;7.60;;;6.90;;
7051;SDS011;3567;52.444;13.556;2022-09-12T05:09:21;6.65;;;6.05;;
7051;SDS011;3567;52.444;13.556;2022-09-12T05:11:46;11.50;;;7.63;;
7051;SDS011;3567;52.444;13.556;2022-09-12T05:14:12;8.75;;;7.30;;
7051;SDS011;3567;52.444;13.556;2022-09-12T05:16:37;8.80;;;7.35;;
7051;SDS011;3567;52.444;13.556;2022-09-12T05:19:03;7.35;;;6.38;;
7051;SDS011;3567;52.444;13.556;2022-09-12T05:21:29;9.52;;;7.40;;
7051;SDS011;3567;52.444;13.556;2022-09-12T05:23:55;7.78;;;6.97;;
7051;SDS011;3567;52.444;13.556;2022-09-12T05:26:21;8.45;;;7.05;;
7051;SDS011;3567;52.444;13.556;2022-09-12T05:28:48;7.57;;;6.78;;
7051;SDS011;3567;52.444;13.556;2022-09-12T05:31:15;10.73;;;9.05;;
7051;SDS011;3567;52.444;13.556;2022-09-12T05:33:43;12.63;;;9.07;;
7051;SDS011;3567;52.444;13.556;2022-09-12T05:36:11;10.55;;;8.35;;
7051;SDS011;3567;52.444;13.556;2022-09-12T05:38:39;10.45;;;9.13;;
7051;SDS011;3567;52.444;13.556;2022-09-12T05:41:11;12.43;;;10.20;;
7051;SDS011;3567;52.444;13.556;2022-09-12T05:43:39;12.50;;;10.50;;
7051;SDS011;3567;52.444;13.556;2022-09-12T05:46:10;10.40;;;9.38;;
7051;SDS011;3567;52.444;13.556;2022-09-12T05:48:39;16.05;;;12.50;;
7051;SDS011;3567;52.444;13.556;2022-09-12T05:51:07;14.57;;;12.40;;
7051;SDS011;3567;52.444;13.556;2022-09-12T05:53:35;11.88;;;10.65;;
7051;SDS011;3567;52.444;13.556;2022-09-12T05:56:05;14.23;;;10.30;;
7051;SDS011;3567;52.444;13.556;2022-09-12T05:58:42;13.35;;;10.20;;
7051;SDS011;3567;52.444;13.556;2022-09-12T06:01:13;13.10;;;10.27;;
7051;SDS011;3567;52.444;13.556;2022-09-12T06:03:44;14.82;;;11.45;;
7051;SDS011;3567;52.444;13.556;2022-09-12T06:06:10;16.55;;;13.30;;
7051;SDS011;3567;52.444;13.556;2022-09-12T06:08:38;14.52;;;11.57;;
7051;SDS011;3567;52.444;13.556;2022-09-12T06:11:05;16.05;;;12.82;;
7051;SDS011;3567;52.444;13.556;2022-09-12T06:13:32;15.75;;;12.88;;
7051;SDS011;3567;52.444;13.556;2022-09-12T06:16:01;18.20;;;14.18;;
7051;SDS011;3567;52.444;13.556;2022-09-12T06:18:31;17.60;;;14.65;;
7051;SDS011;3567;52.444;13.556;2022-09-12T06:20:56;19.20;;;15.60;;
7051;SDS011;3567;52.444;13.556;2022-09-12T06:23:25;23.60;;;17.13;;
7051;SDS011;3567;52.444;13.556;2022-09-12T06:25:51;22.30;;;16.45;;
7051;SDS011;3567;52.444;13.556;2022-09-12T06:28:16;20.38;;;15.35;;
7051;SDS011;3567;52.444;13.556;2022-09-12T06:34:23;16.63;;;14.82;;
7051;SDS011;3567;52.444;13.556;2022-09-12T06:36:48;27.80;;;18.00;;
7051;SDS011;3567;52.444;13.556;2022-09-12T06:39:15;22.42;;;17.52;;
7051;SDS011;3567;52.444;13.556;2022-09-12T06:41:42;23.27;;;18.35;;
7051;SDS011;3567;52.444;13.556;2022-09-12T06:44:09;22.88;;;17.80;;
7051;SDS011;3567;52.444;13.556;2022-09-12T06:46:37;22.23;;;16.73;;
7051;SDS011;3567;52.444;13.556;2022-09-12T06:49:02;21.48;;;16.98;;
7051;SDS011;3567;52.444;13.556;2022-09-12T06:51:28;26.63;;;16.85;;
7051;SDS011;3567;52.444;13.556;2022-09-12T06:53:54;23.65;;;17.75;;
7051;SDS011;3567;52.444;13.556;2022-09-12T06:56:21;28.15;;;19.92;;
7051;SDS011;3567;52.444;13.556;2022-09-12T06:58:49;34.58;;;22.88;;
7051;SDS011;3567;52.444;13.556;2022-09-12T07:01:18;32.80;;;21.98;;
7051;SDS011;3567;52.444;13.556;2022-09-12T07:03:54;29.80;;;20.92;;
7051;SDS011;3567;52.444;13.556;2022-09-12T07:06:24;31.27;;;20.60;;
7051;SDS011;3567;52.444;13.556;2022-09-12T07:08:56;35.05;;;25.58;;
7051;SDS011;3567;52.444;13.556;2022-09-12T07:11:23;32.10;;;23.88;;
7051;SDS011;3567;52.444;13.556;2022-09-12T07:13:51;35.10;;;23.65;;
7051;SDS011;3567;52.444;13.556;2022-09-12T07:16:18;27.80;;;20.27;;
7051;SDS011;3567;52.444;13.556;2022-09-12T07:18:48;31.55;;;21.88;;
7051;SDS011;3567;52.444;13.556;2022-09-12T07:21:15;30.85;;;21.45;;
7051;SDS011;3567;52.444;13.556;2022-09-12T07:23:40;24.73;;;19.77;;
7051;SDS011;3567;52.444;13.556;2022-09-12T07:26:07;32.95;;;24.58;;
7051;SDS011;3567;52.444;13.556;2022-09-12T07:28:35;32.85;;;22.88;;
7051;SDS011;3567;52.444;13.556;2022-09-12T07:31:08;23.48;;;18.30;;
7051;SDS011;3567;52.444;13.556;2022-09-12T07:33:35;23.77;;;17.35;;
7051;SDS011;3567;52.444;13.556;2022-09-12T07:36:05;25.33;;;19.70;;
7051;SDS011;3567;52.444;13.556;2022-09-12T07:38:35;27.42;;;19.10;;
7051;SDS011;3567;52.444;13.556;2022-09-12T07:41:08;21.77;;;17.75;;
7051;SDS011;3567;52.444;13.556;2022-09-12T07:43:37;19.98;;;17.38;;
7051;SDS011;3567;52.444;13.556;2022-09-12T07:46:03;21.00;;;16.40;;
7051;SDS011;3567;52.444;13.556;2022-09-12T07:48:28;16.02;;;13.85;;
7051;SDS011;3567;52.444;13.556;2022-09-12T07:51:00;18.65;;;16.02;;
7051;SDS011;3567;52.444;13.556;2022-09-12T07:53:31;17.00;;;14.05;;
7051;SDS011;3567;52.444;13.556;2022-09-12T07:55:59;16.23;;;13.75;;
7051;SDS011;3567;52.444;13.556;2022-09-12T07:58:26;14.82;;;13.38;;
7051;SDS011;3567;52.444;13.556;2022-09-12T08:00:52;13.35;;;10.65;;
7051;SDS011;3567;52.444;13.556;2022-09-12T08:03:18;14.43;;;12.10;;
7051;SDS011;3567;52.444;13.556;2022-09-12T08:05:43;9.45;;;8.48;;
7051;SDS011;3567;52.444;13.556;2022-09-12T08:08:09;9.50;;;8.50;;
7051;SDS011;3567;52.444;13.556;2022-09-12T08:10:34;9.70;;;7.43;;
7051;SDS011;3567;52.444;13.556;2022-09-12T08:13:00;10.40;;;9.30;;
7051;SDS011;3567;52.444;13.556;2022-09-12T08:15:27;8.18;;;7.38;;
7051;SDS011;3567;52.444;13.556;2022-09-12T08:17:52;8.15;;;7.28;;
7051;SDS011;3567;52.444;13.556;2022-09-12T08:20:18;7.22;;;6.53;;
7051;SDS011;3567;52.444;13.556;2022-09-12T08:22:43;7.95;;;5.78;;
7051;SDS011;3567;52.444;13.556;2022-09-12T08:25:09;5.43;;;4.85;;
7051;SDS011;3567;52.444;13.556;2022-09-12T08:27:34;4.38;;;4.00;;
7051;SDS011;3567;52.444;13.556;2022-09-12T08:30:00;4.25;;;3.95;;
7051;SDS011;3567;52.444;13.556;2022-09-12T08:32:25;5.00;;;3.97;;
7051;SDS011;3567;52.444;13.556;2022-09-12T08:34:51;3.40;;;3.20;;
7051;SDS011;3567;52.444;13.556;2022-09-12T08:37:16;3.83;;;3.42;;
7051;SDS011;3567;52.444;13.556;2022-09-12T08:39:41;4.20;;;3.63;;
7051;SDS011;3567;52.444;13.556;2022-09-12T08:42:08;2.95;;;2.60;;
7051;SDS011;3567;52.444;13.556;2022-09-12T08:55:34;3.05;;;2.60;;
7051;SDS011;3567;52.444;13.556;2022-09-12T08:58:12;2.85;;;2.58;;
7051;SDS011;3567;52.444;13.556;2022-09-12T09:03:34;5.25;;;2.95;;
7051;SDS011;3567;52.444;13.556;2022-09-12T09:12:04;1.80;;;1.70;;
7051;SDS011;3567;52.444;13.556;2022-09-12T09:14:27;1.98;;;1.88;;
7051;SDS011;3567;52.444;13.556;2022-09-12T09:17:15;2.22;;;2.00;;
7051;SDS011;3567;52.444;13.556;2022-09-12T09:19:48;1.92;;;1.83;;
7051;SDS011;3567;52.444;13.556;2022-09-12T09:22:40;2.00;;;1.70;;
7051;SDS011;3567;52.444;13.556;2022-09-12T09:25:16;2.13;;;1.77;;
7051;SDS011;3567;52.444;13.556;2022-09-12T09:27:57;2.17;;;2.05;;
7051;SDS011;3567;52.444;13.556;2022-09-12T09:30:26;1.75;;;1.65;;
7051;SDS011;3567;52.444;13.556;2022-09-12T09:32:53;1.63;;;1.55;;
7051;SDS011;3567;52.444;13.556;2022-09-12T09:40:44;1.05;;;1.05;;
7051;SDS011;3567;52.444;13.556;2022-09-12T09:45:47;2.15;;;0.90;;
7051;SDS011;3567;52.444;13.556;2022-09-12T09:50:44;0.82;;;0.82;;
7051;SDS011;3567;52.444;13.556;2022-09-12T09:53:13;2.42;;;1.05;;
7051;SDS011;3567;52.444;13.556;2022-09-12T09:55:49;2.35;;;0.98;;
7051;SDS011;3567;52.444;13.556;2022-09-12T09:58:27;1.00;;;0.98;;
7051;SDS011;3567;52.444;13.556;2022-09-12T10:01:03;1.48;;;0.80;;
7051;SDS011;3567;52.444;13.556;2022-09-12T10:06:05;1.50;;;0.90;;
7051;SDS011;3567;52.444;13.556;2022-09-12T10:08:32;1.02;;;0.88;;
7051;SDS011;3567;52.444;13.556;2022-09-12T10:11:04;0.73;;;0.73;;
7051;SDS011;3567;52.444;13.556;2022-09-12T10:13:41;0.93;;;0.88;;
7051;SDS011;3567;52.444;13.556;2022-09-12T10:16:21;0.80;;;0.45;;
7051;SDS011;3567;52.444;13.556;2022-09-12T10:18:52;1.40;;;0.50;;
7051;SDS011;3567;52.444;13.556;2022-09-12T10:24:18;3.28;;;0.63;;
7051;SDS011;3567;52.444;13.556;2022-09-12T10:26:49;0.77;;;0.70;;
7051;SDS011;3567;52.444;13.556;2022-09-12T10:29:25;0.63;;;0.50;;
7051;SDS011;3567;52.444;13.556;2022-09-12T10:31:56;0.55;;;0.52;;
7051;SDS011;3567;52.444;13.556;2022-09-12T10:36:50;1.10;;;0.70;;
7051;SDS011;3567;52.444;13.556;2022-09-12T10:39:18;0.70;;;0.70;;
7051;SDS011;3567;52.444;13.556;2022-09-12T10:41:44;2.35;;;0.60;;
7051;SDS011;3567;52.444;13.556;2022-09-12T10:44:14;1.70;;;0.70;;
7051;SDS011;3567;52.444;13.556;2022-09-12T10:46:41;1.25;;;0.80;;
7051;SDS011;3567;52.444;13.556;2022-09-12T10:49:23;1.25;;;0.60;;
7051;SDS011;3567;52.444;13.556;2022-09-12T10:54:56;2.05;;;0.50;;
7051;SDS011;3567;52.444;13.556;2022-09-12T10:57:42;3.47;;;0.60;;
7051;SDS011;3567;52.444;13.556;2022-09-12T11:00:27;1.35;;;0.65;;
7051;SDS011;3567;52.444;13.556;2022-09-12T11:03:04;0.50;;;0.50;;
7051;SDS011;3567;52.444;13.556;2022-09-12T11:05:52;1.73;;;0.50;;
7051;SDS011;3567;52.444;13.556;2022-09-12T11:16:48;0.63;;;0.50;;
7051;SDS011;3567;52.444;13.556;2022-09-12T11:19:45;0.70;;;0.40;;
7051;SDS011;3567;52.444;13.556;2022-09-12T11:30:12;0.50;;;0.50;;
7051;SDS011;3567;52.444;13.556;2022-09-12T11:35:28;1.17;;;0.60;;
7051;SDS011;3567;52.444;13.556;2022-09-12T11:43:49;0.60;;;0.60;;
7051;SDS011;3567;52.444;13.556;2022-09-12T11:46:20;0.95;;;0.60;;
7051;SDS011;3567;52.444;13.556;2022-09-12T11:51:43;1.17;;;0.47;;
7051;SDS011;3567;52.444;13.556;2022-09-12T11:56:58;0.52;;;0.52;;
7051;SDS011;3567;52.444;13.556;2022-09-12T12:02:24;1.17;;;0.70;;
7051;SDS011;3567;52.444;13.556;2022-09-12T12:07:33;0.57;;;0.57;;
7051;SDS011;3567;52.444;13.556;2022-09-12T12:10:06;1.23;;;0.68;;
7051;SDS011;3567;52.444;13.556;2022-09-12T12:12:45;1.48;;;0.60;;
7051;SDS011;3567;52.444;13.556;2022-09-12T12:15:12;1.25;;;0.80;;
7051;SDS011;3567;52.444;13.556;2022-09-12T12:17:40;1.25;;;0.60;;
7051;SDS011;3567;52.444;13.556;2022-09-12T12:20:06;0.98;;;0.80;;
7051;SDS011;3567;52.444;13.556;2022-09-12T12:22:51;1.50;;;0.60;;
7051;SDS011;3567;52.444;13.556;2022-09-12T12:35:36;2.42;;;0.60;;
7051;SDS011;3567;52.444;13.556;2022-09-12T12:40:53;1.40;;;0.80;;
7051;SDS011;3567;52.444;13.556;2022-09-12T12:43:36;1.90;;;0.70;;
7051;SDS011;3567;52.444;13.556;2022-09-12T12:46:04;0.88;;;0.65;;
7051;SDS011;3567;52.444;13.556;2022-09-12T12:48:32;0.93;;;0.50;;
7051;SDS011;3567;52.444;13.556;2022-09-12T12:51:13;0.63;;;0.57;;
7051;SDS011;3567;52.444;13.556;2022-09-12T12:53:58;1.52;;;0.88;;
7051;SDS011;3567;52.444;13.556;2022-09-12T12:58:59;1.27;;;0.57;;
7051;SDS011;3567;52.444;13.556;2022-09-12T13:01:26;1.02;;;0.80;;
7051;SDS011;3567;52.444;13.556;2022-09-12T13:06:37;0.95;;;0.60;;
7051;SDS011;3567;52.444;13.556;2022-09-12T13:09:07;0.80;;;0.68;;
7051;SDS011;3567;52.444;13.556;2022-09-12T13:11:44;0.98;;;0.50;;
7051;SDS011;3567;52.444;13.556;2022-09-12T13:14:32;1.30;;;0.50;;
7051;SDS011;3567;52.444;13.556;2022-09-12T13:17:00;0.73;;;0.60;;
7051;SDS011;3567;52.444;13.556;2022-09-12T13:19:30;2.83;;;0.70;;
7051;SDS011;3567;52.444;13.556;2022-09-12T13:22:02;0.93;;;0.50;;
7051;SDS011;3567;52.444;13.556;2022-09-12T13:24:32;0.70;;;0.70;;
7051;SDS011;3567;52.444;13.556;2022-09-12T13:26:58;1.27;;;0.60;;
7051;SDS011;3567;52.444;13.556;2022-09-12T13:29:24;0.60;;;0.60;;
7051;SDS011;3567;52.444;13.556;2022-09-12T13:31:55;1.58;;;0.57;;
7051;SDS011;3567;52.444;13.556;2022-09-12T13:34:23;1.48;;;0.38;;
7051;SDS011;3567;52.444;13.556;2022-09-12T13:39:42;1.42;;;0.50;;
7051;SDS011;3567;52.444;13.556;2022-09-12T13:42:22;1.00;;;0.50;;
7051;SDS011;3567;52.444;13.556;2022-09-12T13:45:06;0.98;;;0.57;;
7051;SDS011;3567;52.444;13.556;2022-09-12T13:47:52;1.85;;;0.40;;
7051;SDS011;3567;52.444;13.556;2022-09-12T13:50:27;1.30;;;0.30;;
7051;SDS011;3567;52.444;13.556;2022-09-12T13:53:18;0.50;;;0.50;;
7051;SDS011;3567;52.444;13.556;2022-09-12T13:55:51;2.40;;;0.50;;
7051;SDS011;3567;52.444;13.556;2022-09-12T14:00:58;2.50;;;0.40;;
7051;SDS011;3567;52.444;13.556;2022-09-12T14:03:30;0.68;;;0.40;;
7051;SDS011;3567;52.444;13.556;2022-09-12T14:06:16;2.30;;;0.50;;
7051;SDS011;3567;52.444;13.556;2022-09-12T14:08:43;1.75;;;0.50;;
7051;SDS011;3567;52.444;13.556;2022-09-12T14:11:11;1.73;;;0.50;;
7051;SDS011;3567;52.444;13.556;2022-09-12T14:13:48;0.65;;;0.40;;
7051;SDS011;3567;52.444;13.556;2022-09-12T14:16:16;0.52;;;0.50;;
7051;SDS011;3567;52.444;13.556;2022-09-12T14:18:43;0.85;;;0.60;;
7051;SDS011;3567;52.444;13.556;2022-09-12T14:24:08;1.08;;;0.40;;
7051;SDS011;3567;52.444;13.556;2022-09-12T14:26:36;0.40;;;0.40;;
7051;SDS011;3567;52.444;13.556;2022-09-12T14:29:04;0.45;;;0.45;;
7051;SDS011;3567;52.444;13.556;2022-09-12T14:31:35;0.82;;;0.50;;
7051;SDS011;3567;52.444;13.556;2022-09-12T14:34:17;0.68;;;0.43;;
7051;SDS011;3567;52.444;13.556;2022-09-12T14:39:20;0.50;;;0.40;;
7051;SDS011;3567;52.444;13.556;2022-09-12T14:41:47;0.63;;;0.50;;
7051;SDS011;3567;52.444;13.556;2022-09-12T14:44:15;0.43;;;0.38;;
7051;SDS011;3567;52.444;13.556;2022-09-12T14:46:43;2.30;;;0.50;;
7051;SDS011;3567;52.444;13.556;2022-09-12T14:52:21;2.83;;;2.03;;
7051;SDS011;3567;52.444;13.556;2022-09-12T14:54:54;0.77;;;0.77;;
7051;SDS011;3567;52.444;13.556;2022-09-12T14:59:52;0.50;;;0.50;;
7051;SDS011;3567;52.444;13.556;2022-09-12T15:04:45;0.50;;;0.50;;
7051;SDS011;3567;52.444;13.556;2022-09-12T15:10:16;0.65;;;0.47;;
7051;SDS011;3567;52.444;13.556;2022-09-12T15:12:49;0.30;;;0.30;;
7051;SDS011;3567;52.444;13.556;2022-09-12T15:15:28;1.88;;;0.50;;
7051;SDS011;3567;52.444;13.556;2022-09-12T15:17:53;0.55;;;0.40;;
7051;SDS011;3567;52.444;13.556;2022-09-12T15:20:18;0.40;;;0.40;;
7051;SDS011;3567;52.444;13.556;2022-09-12T15:22:44;0.52;;;0.52;;
7051;SDS011;3567;52.444;13.556;2022-09-12T15:25:09;1.77;;;1.67;;
7051;SDS011;3567;52.444;13.556;2022-09-12T15:27:36;1.05;;;0.95;;
7051;SDS011;3567;52.444;13.556;2022-09-12T15:30:05;0.60;;;0.60;;
7051;SDS011;3567;52.444;13.556;2022-09-12T15:32:31;1.98;;;0.50;;
7051;SDS011;3567;52.444;13.556;2022-09-12T15:34:58;1.85;;;0.50;;
7051;SDS011;3567;52.444;13.556;2022-09-12T15:37:23;0.50;;;0.50;;
7051;SDS011;3567;52.444;13.556;2022-09-12T15:39:49;0.50;;;0.50;;
7051;SDS011;3567;52.444;13.556;2022-09-12T15:42:16;1.92;;;0.50;;
7051;SDS011;3567;52.444;13.556;2022-09-12T15:44:43;1.05;;;0.40;;
7051;SDS011;3567;52.444;13.556;2022-09-12T15:47:12;1.73;;;0.80;;
7051;SDS011;3567;52.444;13.556;2022-09-12T15:49:38;0.70;;;0.65;;
7051;SDS011;3567;52.444;13.556;2022-09-12T15:52:04;0.85;;;0.68;;
7051;SDS011;3567;52.444;13.556;2022-09-12T15:54:30;1.15;;;0.60;;
7051;SDS011;3567;52.444;13.556;2022-09-12T15:56:55;0.50;;;0.45;;
7051;SDS011;3567;52.444;13.556;2022-09-12T15:59:20;0.40;;;0.40;;
7051;SDS011;3567;52.444;13.556;2022-09-12T16:01:46;0.50;;;0.40;;
7051;SDS011;3567;52.444;13.556;2022-09-12T16:04:21;0.40;;;0.40;;
7051;SDS011;3567;52.444;13.556;2022-09-12T16:06:49;2.17;;;0.60;;
7051;SDS011;3567;52.444;13.556;2022-09-12T16:09:15;0.75;;;0.57;;
7051;SDS011;3567;52.444;13.556;2022-09-12T16:11:40;1.67;;;1.58;;
7051;SDS011;3567;52.444;13.556;2022-09-12T16:14:06;1.65;;;1.38;;
7051;SDS011;3567;52.444;13.556;2022-09-12T16:16:31;6.43;;;5.28;;
7051;SDS011;3567;52.444;13.556;2022-09-12T16:18:57;2.85;;;2.65;;
7051;SDS011;3567;52.444;13.556;2022-09-12T16:21:23;1.23;;;1.20;;
7051;SDS011;3567;52.444;13.556;2022-09-12T16:23:48;2.90;;;1.02;;
7051;SDS011;3567;52.444;13.556;2022-09-12T16:26:14;3.22;;;1.30;;
7051;SDS011;3567;52.444;13.556;2022-09-12T16:28:40;1.25;;;1.10;;
7051;SDS011;3567;52.444;13.556;2022-09-12T16:31:06;1.00;;;0.90;;
7051;SDS011;3567;52.444;13.556;2022-09-12T16:33:33;1.42;;;1.08;;
7051;SDS011;3567;52.444;13.556;2022-09-12T16:36:01;1.50;;;1.02;;
7051;SDS011;3567;52.444;13.556;2022-09-12T16:38:31;3.50;;;0.82;;
7051;SDS011;3567;52.444;13.556;2022-09-12T16:41:01;0.80;;;0.80;;
7051;SDS011;3567;52.444;13.556;2022-09-12T16:43:28;0.95;;;0.77;;
7051;SDS011;3567;52.444;13.556;2022-09-12T16:46:00;0.73;;;0.73;;
7051;SDS011;3567;52.444;13.556;2022-09-12T16:48:30;1.77;;;0.60;;
7051;SDS011;3567;52.444;13.556;2022-09-12T16:50:57;1.33;;;0.70;;
7051;SDS011;3567;52.444;13.556;2022-09-12T16:53:24;1.05;;;0.70;;
7051;SDS011;3567;52.444;13.556;2022-09-12T16:55:50;3.72;;;0.82;;
7051;SDS011;3567;52.444;13.556;2022-09-12T16:58:15;0.63;;;0.63;;
7051;SDS011;3567;52.444;13.556;2022-09-12T17:00:41;0.50;;;0.50;;
7051;SDS011;3567;52.444;13.556;2022-09-12T17:03:06;0.85;;;0.80;;
7051;SDS011;3567;52.444;13.556;2022-09-12T17:05:32;2.25;;;0.80;;
7051;SDS011;3567;52.444;13.556;2022-09-12T17:07:57;2.38;;;0.80;;
7051;SDS011;3567;52.444;13.556;2022-09-12T17:10:23;0.50;;;0.50;;
7051;SDS011;3567;52.444;13.556;2022-09-12T17:12:48;0.60;;;0.60;;
7051;SDS011;3567;52.444;13.556;2022-09-12T17:15:14;0.70;;;0.70;;
7051;SDS011;3567;52.444;13.556;2022-09-12T17:17:40;1.17;;;0.95;;
7051;SDS011;3567;52.444;13.556;2022-09-12T17:20:05;1.02;;;0.88;;
7051;SDS011;3567;52.444;13.556;2022-09-12T17:22:31;0.88;;;0.82;;
7051;SDS011;3567;52.444;13.556;2022-09-12T17:24:57;0.95;;;0.70;;
7051;SDS011;3567;52.444;13.556;2022-09-12T17:27:22;0.63;;;0.60;;
7051;SDS011;3567;52.444;13.556;2022-09-12T17:29:47;0.77;;;0.77;;
7051;SDS011;3567;52.444;13.556;2022-09-12T17:32:13;1.05;;;0.95;;
7051;SDS011;3567;52.444;13.556;2022-09-12T17:34:38;0.90;;;0.90;;
7051;SDS011;3567;52.444;13.556;2022-09-12T17:37:03;1.15;;;0.75;;
7051;SDS011;3567;52.444;13.556;2022-09-12T17:39:29;1.50;;;0.95;;
7051;SDS011;3567;52.444;13.556;2022-09-12T17:41:54;1.60;;;1.50;;
7051;SDS011;3567;52.444;13.556;2022-09-12T17:44:21;3.65;;;1.17;;
7051;SDS011;3567;52.444;13.556;2022-09-12T17:46:48;3.30;;;1.00;;
7051;SDS011;3567;52.444;13.556;2022-09-12T17:49:14;0.88;;;0.85;;